createdAt,value
2023-01-28T00:01:26.645Z,8.65
2023-01-28T00:03:53.499Z,3.28
2023-01-28T00:06:20.475Z,7.95
2023-01-28T00:08:48.299Z,5.03
2023-01-28T00:11:15.283Z,2.35
2023-01-28T00:13:42.273Z,2.33
2023-01-28T00:16:10.115Z,7.85
2023-01-28T00:18:37.322Z,3.67
2023-01-28T00:21:08.587Z,3.22
2023-01-28T00:23:37.141Z,4.07
2023-01-28T00:26:13.681Z,4.38
2023-01-28T00:28:41.499Z,14.38
2023-01-28T00:31:21.492Z,7.05
2023-01-28T00:33:49.836Z,14.85
2023-01-28T00:36:18.506Z,14.70
2023-01-28T00:38:51.023Z,12.95
2023-01-28T00:41:21.942Z,11.48
2023-01-28T00:43:50.010Z,5.03
2023-01-28T00:46:17.292Z,7.88
2023-01-28T00:48:44.954Z,6.85
2023-01-28T00:51:13.729Z,11.80
2023-01-28T00:53:40.978Z,13.65
2023-01-28T00:56:09.357Z,24.45
2023-01-28T00:58:36.138Z,5.00
2023-01-28T01:01:13.176Z,4.05
2023-01-28T01:03:40.455Z,4.03
2023-01-28T01:06:08.924Z,7.35
2023-01-28T01:08:36.021Z,13.07
2023-01-28T01:11:03.797Z,14.45
2023-01-28T01:13:32.558Z,9.13
2023-01-28T01:16:26.951Z,5.40
2023-01-28T01:18:54.759Z,3.35
2023-01-28T01:21:24.471Z,5.35
2023-01-28T01:23:52.741Z,6.45
2023-01-28T01:26:20.076Z,6.45
2023-01-28T01:28:47.319Z,7.75
2023-01-28T01:31:17.722Z,11.10
2023-01-28T01:33:46.618Z,8.07
2023-01-28T01:36:15.137Z,7.60
2023-01-28T01:38:42.611Z,6.40
2023-01-28T01:41:17.043Z,4.40
2023-01-28T01:43:55.377Z,3.47
2023-01-28T01:46:37.932Z,4.03
2023-01-28T01:49:26.512Z,3.22
2023-01-28T01:51:59.919Z,2.28
2023-01-28T01:54:30.468Z,1.65
2023-01-28T01:56:59.544Z,2.80
2023-01-28T01:59:30.892Z,1.92
2023-01-28T02:02:01.186Z,2.45
2023-01-28T02:04:31.759Z,2.03
2023-01-28T02:07:01.784Z,10.43
2023-01-28T02:09:36.038Z,1.83
2023-01-28T02:12:11.447Z,1.40
2023-01-28T02:14:43.981Z,4.68
2023-01-28T02:17:11.237Z,2.83
2023-01-28T02:19:48.378Z,7.57
2023-01-28T02:22:42.939Z,4.32
2023-01-28T02:25:16.087Z,4.90
2023-01-28T02:28:08.788Z,2.17
2023-01-28T02:30:39.935Z,1.77
2023-01-28T02:33:39.195Z,0.73
2023-01-28T02:36:23.339Z,1.95
2023-01-28T02:38:53.361Z,5.22
2023-01-28T02:41:33.954Z,2.03
2023-01-28T02:44:03.156Z,2.08
2023-01-28T02:46:48.624Z,3.22
2023-01-28T02:51:53.021Z,1.58
2023-01-28T02:54:58.235Z,2.17
2023-01-28T02:57:38.892Z,2.00
2023-01-28T03:00:29.614Z,1.75
2023-01-28T03:03:28.312Z,1.95
2023-01-28T03:06:06.674Z,5.68
2023-01-28T03:08:56.357Z,1.17
2023-01-28T03:11:41.964Z,2.92
2023-01-28T03:14:27.782Z,3.63
2023-01-28T03:17:18.262Z,3.20
2023-01-28T03:20:04.389Z,2.83
2023-01-28T03:22:52.782Z,4.78
2023-01-28T03:25:39.330Z,2.97
2023-01-28T03:28:31.262Z,4.80
2023-01-28T03:31:24.405Z,2.03
2023-01-28T03:34:11.297Z,2.30
2023-01-28T03:36:50.934Z,0.75
2023-01-28T03:39:20.041Z,2.95
2023-01-28T03:42:18.124Z,5.38
2023-01-28T03:44:55.212Z,2.45
2023-01-28T03:47:25.186Z,1.98
2023-01-28T03:49:54.167Z,2.67
2023-01-28T03:52:32.629Z,1.60
2023-01-28T03:54:59.598Z,7.80
2023-01-28T03:57:28.196Z,6.40
2023-01-28T03:59:55.260Z,2.60
2023-01-28T04:02:23.467Z,1.20
2023-01-28T04:04:50.607Z,2.97
2023-01-28T04:07:18.002Z,2.45
2023-01-28T04:09:45.170Z,2.72
2023-01-28T04:12:12.480Z,5.50
2023-01-28T04:14:40.476Z,6.05
2023-01-28T04:17:10.835Z,1.13
2023-01-28T04:19:37.668Z,4.78
2023-01-28T04:22:11.162Z,7.85
2023-01-28T04:24:38.001Z,5.85
2023-01-28T04:27:04.792Z,7.68
2023-01-28T04:29:31.875Z,11.35
2023-01-28T04:31:58.592Z,5.82
2023-01-28T04:34:25.407Z,4.38
2023-01-28T04:36:52.172Z,1.95
2023-01-28T04:39:19.035Z,5.18
2023-01-28T04:41:45.831Z,6.15
2023-01-28T04:44:13.813Z,4.63
2023-01-28T04:46:40.797Z,6.18
2023-01-28T04:49:07.702Z,2.67
2023-01-28T04:51:34.594Z,2.70
2023-01-28T04:54:01.584Z,8.95
2023-01-28T04:56:28.455Z,2.70
2023-01-28T04:58:55.265Z,4.97
2023-01-28T05:01:22.123Z,2.67
2023-01-28T05:03:48.887Z,2.90
2023-01-28T05:06:15.724Z,4.78
2023-01-28T05:08:42.679Z,8.18
2023-01-28T05:11:09.635Z,4.75
2023-01-28T05:13:36.485Z,1.30
2023-01-28T05:16:03.386Z,4.30
2023-01-28T05:18:30.168Z,2.10
2023-01-28T05:20:57.100Z,5.82
2023-01-28T05:23:24.202Z,3.22
2023-01-28T05:25:51.098Z,2.45
2023-01-28T05:28:17.825Z,3.92
2023-01-28T05:30:44.786Z,12.10
2023-01-28T05:33:11.625Z,5.10
2023-01-28T05:35:38.580Z,2.40
2023-01-28T05:38:05.739Z,4.93
2023-01-28T05:40:32.647Z,7.60
2023-01-28T05:42:59.428Z,1.63
2023-01-28T05:45:26.208Z,13.60
2023-01-28T05:47:53.141Z,3.45
2023-01-28T05:50:20.097Z,7.95
2023-01-28T05:52:46.880Z,3.28
2023-01-28T05:55:13.819Z,5.85
2023-01-28T05:57:40.732Z,5.22
2023-01-28T06:00:08.125Z,4.18
2023-01-28T06:02:35.005Z,15.15
2023-01-28T06:05:02.050Z,9.20
2023-01-28T06:07:29.032Z,3.42
2023-01-28T06:09:56.030Z,7.20
2023-01-28T06:12:22.974Z,9.70
2023-01-28T06:14:49.775Z,5.97
2023-01-28T06:17:16.510Z,5.70
2023-01-28T06:19:44.092Z,12.75
2023-01-28T06:22:11.555Z,9.85
2023-01-28T06:24:38.378Z,7.93
2023-01-28T06:27:05.316Z,8.20
2023-01-28T06:29:32.355Z,7.50
2023-01-28T06:31:59.211Z,9.93
2023-01-28T06:34:26.025Z,6.00
2023-01-28T06:36:53.429Z,4.38
2023-01-28T06:39:24.173Z,8.10
2023-01-28T06:41:51.228Z,7.70
2023-01-28T06:44:18.240Z,4.45
2023-01-28T06:46:45.143Z,4.90
2023-01-28T06:49:12.067Z,7.93
2023-01-28T06:51:38.886Z,3.67
2023-01-28T06:54:05.880Z,12.98
2023-01-28T06:56:32.713Z,9.48
2023-01-28T06:58:59.516Z,8.57
2023-01-28T07:01:26.389Z,10.95
2023-01-28T07:03:53.220Z,15.15
2023-01-28T07:06:20.168Z,14.30
2023-01-28T07:08:47.660Z,7.95
2023-01-28T07:11:14.747Z,8.63
2023-01-28T07:13:41.996Z,12.00
2023-01-28T07:16:09.161Z,17.73
2023-01-28T07:18:35.976Z,11.40
2023-01-28T07:21:02.780Z,5.03
2023-01-28T07:23:29.616Z,18.17
2023-01-28T07:26:01.780Z,11.27
2023-01-28T07:28:28.895Z,6.95
2023-01-28T07:30:55.763Z,9.18
2023-01-28T07:33:22.713Z,8.30
2023-01-28T07:35:49.604Z,7.88
2023-01-28T07:38:16.505Z,7.57
2023-01-28T07:40:43.500Z,5.65
2023-01-28T07:43:10.383Z,6.05
2023-01-28T07:45:37.727Z,9.95
2023-01-28T07:48:07.118Z,4.82
2023-01-28T07:50:36.247Z,7.18
2023-01-28T07:53:05.518Z,8.95
2023-01-28T07:55:35.746Z,14.45
2023-01-28T07:58:04.659Z,9.88
2023-01-28T08:00:33.866Z,11.30
2023-01-28T08:03:03.314Z,20.52
2023-01-28T08:05:51.940Z,10.75
2023-01-28T08:08:19.537Z,10.10
2023-01-28T08:10:46.619Z,8.13
2023-01-28T08:13:14.942Z,11.88
2023-01-28T08:15:42.220Z,9.80
2023-01-28T08:18:10.652Z,9.65
2023-01-28T08:20:37.662Z,9.88
2023-01-28T08:23:08.287Z,11.38
2023-01-28T08:25:35.547Z,11.15
2023-01-28T08:28:03.781Z,11.57
2023-01-28T08:30:30.720Z,13.27
2023-01-28T08:33:01.584Z,10.10
2023-01-28T08:35:29.490Z,7.03
2023-01-28T08:37:58.955Z,9.20
2023-01-28T08:40:25.807Z,11.40
2023-01-28T08:42:54.473Z,15.88
2023-01-28T08:45:27.536Z,12.52
2023-01-28T08:47:57.372Z,8.55
2023-01-28T08:50:26.799Z,11.02
2023-01-28T08:52:58.412Z,13.57
2023-01-28T08:55:26.779Z,13.27
2023-01-28T08:57:53.959Z,15.40
2023-01-28T09:00:22.640Z,14.18
2023-01-28T09:02:53.553Z,20.88
2023-01-28T09:05:21.721Z,14.25
2023-01-28T09:07:49.207Z,12.27
2023-01-28T09:10:16.984Z,10.70
2023-01-28T09:12:44.410Z,13.13
2023-01-28T09:15:12.368Z,9.48
2023-01-28T09:17:39.875Z,13.55
2023-01-28T09:20:08.303Z,12.00
2023-01-28T09:22:35.213Z,8.52
2023-01-28T09:25:02.144Z,12.50
2023-01-28T09:27:28.900Z,9.00
2023-01-28T09:29:55.720Z,8.95
2023-01-28T09:32:24.310Z,12.93
2023-01-28T09:34:51.395Z,14.48
2023-01-28T09:37:21.009Z,10.48
2023-01-28T09:39:48.315Z,8.13
2023-01-28T09:42:49.309Z,11.52
2023-01-28T09:45:35.624Z,11.70
2023-01-28T09:48:04.950Z,13.52
2023-01-28T09:50:40.375Z,14.13
2023-01-28T09:53:07.115Z,10.52
2023-01-28T09:55:41.656Z,14.50
2023-01-28T09:58:13.487Z,13.68
2023-01-28T10:01:07.280Z,10.23
2023-01-28T10:04:05.590Z,13.30
2023-01-28T10:06:54.827Z,12.98
2023-01-28T10:09:42.526Z,10.75
2023-01-28T10:12:37.270Z,20.02
2023-01-28T10:15:04.043Z,10.38
2023-01-28T10:17:58.542Z,14.95
2023-01-28T10:20:36.654Z,8.18
2023-01-28T10:23:07.320Z,7.82
2023-01-28T10:25:35.821Z,17.33
2023-01-28T10:28:03.111Z,12.70
2023-01-28T10:30:37.100Z,13.50
2023-01-28T10:33:11.417Z,8.27
2023-01-28T10:35:41.429Z,12.48
2023-01-28T10:38:17.371Z,15.25
2023-01-28T10:40:47.973Z,9.85
2023-01-28T10:43:22.721Z,11.82
2023-01-28T10:46:13.329Z,18.13
2023-01-28T10:48:59.793Z,15.98
2023-01-28T10:51:41.531Z,13.80
2023-01-28T10:54:19.267Z,10.13
2023-01-28T10:56:46.735Z,18.23
2023-01-28T10:59:28.896Z,13.70
2023-01-28T11:02:17.451Z,9.20
2023-01-28T11:04:44.190Z,7.65
2023-01-28T11:07:19.633Z,13.32
2023-01-28T11:09:52.883Z,15.77
2023-01-28T11:12:28.882Z,9.77
2023-01-28T11:14:57.144Z,8.38
2023-01-28T11:17:35.066Z,4.22
2023-01-28T11:20:11.928Z,5.25
2023-01-28T11:22:43.566Z,3.67
2023-01-28T11:25:37.056Z,7.65
2023-01-28T11:28:14.534Z,9.80
2023-01-28T11:30:42.024Z,15.40
2023-01-28T11:33:14.952Z,7.90
2023-01-28T11:35:42.000Z,6.05
2023-01-28T11:38:21.208Z,10.27
2023-01-28T11:40:55.842Z,4.75
2023-01-28T11:43:30.685Z,11.85
2023-01-28T11:46:35.736Z,4.32
2023-01-28T11:49:16.646Z,11.48
2023-01-28T11:52:12.396Z,4.65
2023-01-28T11:54:45.564Z,5.03
2023-01-28T11:57:38.594Z,6.30
2023-01-28T12:00:20.918Z,5.60
2023-01-28T12:03:12.097Z,7.35
2023-01-28T12:06:07.221Z,3.90
2023-01-28T12:08:51.634Z,5.30
2023-01-28T12:12:12.623Z,3.58
2023-01-28T12:15:30.801Z,7.45
2023-01-28T12:18:18.375Z,7.28
2023-01-28T12:21:16.784Z,4.65
2023-01-28T12:24:04.983Z,5.00
2023-01-28T12:27:01.541Z,4.93
2023-01-28T12:29:35.630Z,17.80
2023-01-28T12:32:14.086Z,24.25
2023-01-28T12:35:01.158Z,11.75
2023-01-28T12:37:37.238Z,14.48
2023-01-28T12:40:26.517Z,8.77
2023-01-28T12:43:02.705Z,23.60
2023-01-28T12:45:45.629Z,10.88
2023-01-28T12:48:12.817Z,10.43
2023-01-28T12:50:54.308Z,9.73
2023-01-28T12:53:40.570Z,7.47
2023-01-28T12:56:16.939Z,12.95
2023-01-28T12:58:47.871Z,9.00
2023-01-28T13:01:21.505Z,8.48
2023-01-28T13:04:13.953Z,8.20
2023-01-28T13:06:47.176Z,9.65
2023-01-28T13:09:19.318Z,6.95
2023-01-28T13:11:49.759Z,9.40
2023-01-28T13:14:17.179Z,4.82
2023-01-28T13:16:44.293Z,7.30
2023-01-28T13:19:20.451Z,10.45
2023-01-28T13:21:50.093Z,7.00
2023-01-28T13:24:16.848Z,6.28
2023-01-28T13:26:55.090Z,7.90
2023-01-28T13:29:32.491Z,10.18
2023-01-28T13:32:02.087Z,6.05
2023-01-28T13:34:35.520Z,15.65
2023-01-28T13:37:29.055Z,5.03
2023-01-28T13:40:22.735Z,5.88
2023-01-28T13:43:06.176Z,7.40
2023-01-28T13:45:34.070Z,10.38
2023-01-28T13:48:29.956Z,6.80
2023-01-28T13:50:57.726Z,14.63
2023-01-28T13:53:36.709Z,6.35
2023-01-28T13:56:08.941Z,10.55
2023-01-28T13:58:48.421Z,8.85
2023-01-28T14:01:34.110Z,16.65
2023-01-28T14:04:25.870Z,12.68
2023-01-28T14:07:30.395Z,11.27
2023-01-28T14:10:15.555Z,17.08
2023-01-28T14:12:52.443Z,10.15
2023-01-28T14:15:22.197Z,8.10
2023-01-28T14:17:54.858Z,8.75
2023-01-28T14:20:39.078Z,13.23
2023-01-28T14:23:18.152Z,9.75
2023-01-28T14:25:55.636Z,13.75
2023-01-28T14:29:00.170Z,11.20
2023-01-28T14:31:31.530Z,14.60
2023-01-28T14:34:06.160Z,14.02
2023-01-28T14:36:37.998Z,19.90
2023-01-28T14:39:04.908Z,15.30
2023-01-28T14:41:31.820Z,13.98
2023-01-28T14:43:58.772Z,18.33
2023-01-28T14:46:36.185Z,10.60
2023-01-28T14:49:29.504Z,17.60
2023-01-28T14:52:14.904Z,10.98
2023-01-28T14:57:22.356Z,11.23
2023-01-28T14:59:55.211Z,16.25
2023-01-28T15:02:28.165Z,25.88
2023-01-28T15:04:56.192Z,16.67
2023-01-28T15:07:26.136Z,13.93
2023-01-28T15:10:14.416Z,13.27
2023-01-28T15:12:44.734Z,17.02
2023-01-28T15:15:18.077Z,15.77
2023-01-28T15:17:46.117Z,14.75
2023-01-28T15:20:19.640Z,17.27
2023-01-28T15:22:46.690Z,18.73
2023-01-28T15:25:22.495Z,16.83
2023-01-28T15:27:51.477Z,22.38
2023-01-28T15:30:27.741Z,22.92
2023-01-28T15:33:06.602Z,19.92
2023-01-28T15:35:36.324Z,14.68
2023-01-28T15:38:04.441Z,22.90
2023-01-28T15:40:40.770Z,17.58
2023-01-28T15:43:19.783Z,18.15
2023-01-28T15:45:48.998Z,19.67
2023-01-28T15:48:16.403Z,35.33
2023-01-28T15:50:46.737Z,28.85
2023-01-28T15:53:14.521Z,18.67
2023-01-28T15:55:45.856Z,19.00
2023-01-28T15:58:20.054Z,17.08
2023-01-28T16:00:48.728Z,17.83
2023-01-28T16:03:21.239Z,10.98
2023-01-28T16:05:59.321Z,21.98
2023-01-28T16:08:41.831Z,17.58
2023-01-28T16:11:10.333Z,12.13
2023-01-28T16:13:43.424Z,10.30
2023-01-28T16:16:11.051Z,12.57
2023-01-28T16:18:48.153Z,9.82
2023-01-28T16:21:43.792Z,14.95
2023-01-28T16:24:36.208Z,16.42
2023-01-28T16:27:07.152Z,13.65
2023-01-28T16:29:34.123Z,9.85
2023-01-28T16:32:01.566Z,15.80
2023-01-28T16:34:28.747Z,14.73
2023-01-28T16:36:59.476Z,26.23
2023-01-28T16:39:26.402Z,15.00
2023-01-28T16:41:53.977Z,23.50
2023-01-28T16:44:20.766Z,18.23
2023-01-28T16:46:47.641Z,19.60
2023-01-28T16:49:14.509Z,17.65
2023-01-28T16:51:43.984Z,14.48
2023-01-28T16:54:16.566Z,14.55
2023-01-28T16:56:47.189Z,17.88
2023-01-28T16:59:16.176Z,18.42
2023-01-28T17:01:44.342Z,17.13
2023-01-28T17:04:12.763Z,22.40
2023-01-28T17:06:43.318Z,19.48
2023-01-28T17:09:14.527Z,24.15
2023-01-28T17:11:41.527Z,24.05
2023-01-28T17:14:10.358Z,21.02
2023-01-28T17:16:37.601Z,16.50
2023-01-28T17:19:04.759Z,19.58
2023-01-28T17:21:31.800Z,19.25
2023-01-28T17:24:00.551Z,17.27
2023-01-28T17:26:29.064Z,16.10
2023-01-28T17:28:56.383Z,19.58
2023-01-28T17:31:23.579Z,20.85
2023-01-28T17:33:54.954Z,11.90
2023-01-28T17:36:22.207Z,15.77
2023-01-28T17:38:49.019Z,16.75
2023-01-28T17:41:17.365Z,14.70
2023-01-28T17:43:49.600Z,14.50
2023-01-28T17:46:17.480Z,15.25
2023-01-28T17:48:45.693Z,15.88
2023-01-28T17:51:13.735Z,15.48
2023-01-28T17:53:44.810Z,14.00
2023-01-28T17:56:16.996Z,21.15
2023-01-28T17:58:43.811Z,16.85
2023-01-28T18:01:11.184Z,20.80
2023-01-28T18:04:27.926Z,13.98
2023-01-28T18:06:54.849Z,18.13
2023-01-28T18:09:21.806Z,11.40
2023-01-28T18:11:48.562Z,11.75
2023-01-28T18:14:15.426Z,13.35
2023-01-28T18:16:42.288Z,20.15
2023-01-28T18:19:16.726Z,17.63
2023-01-28T18:22:16.065Z,15.32
2023-01-28T18:24:42.836Z,17.95
2023-01-28T18:27:09.727Z,16.40
2023-01-28T18:29:36.455Z,21.60
2023-01-28T18:32:04.581Z,19.90
2023-01-28T18:34:31.688Z,20.25
2023-01-28T18:36:59.706Z,15.35
2023-01-28T18:39:30.223Z,19.40
2023-01-28T18:41:58.816Z,19.13
2023-01-28T18:44:27.695Z,19.20
2023-01-28T18:46:54.845Z,15.07
2023-01-28T18:49:22.137Z,20.95
2023-01-28T18:51:49.589Z,14.95
2023-01-28T18:54:16.850Z,19.25
2023-01-28T18:56:44.406Z,18.65
2023-01-28T18:59:13.731Z,17.60
2023-01-28T19:01:42.831Z,19.40
2023-01-28T19:04:10.509Z,18.58
2023-01-28T19:06:37.452Z,19.60
2023-01-28T19:09:06.816Z,16.55
2023-01-28T19:11:34.693Z,14.82
2023-01-28T19:14:02.086Z,16.25
2023-01-28T19:16:29.037Z,14.05
2023-01-28T19:19:00.933Z,23.58
2023-01-28T19:21:29.889Z,14.43
2023-01-28T19:23:58.517Z,19.45
2023-01-28T19:26:26.583Z,12.30
2023-01-28T19:28:53.611Z,11.57
2023-01-28T19:31:21.977Z,12.85
2023-01-28T19:33:52.659Z,18.52
2023-01-28T19:36:19.484Z,16.63
2023-01-28T19:38:46.328Z,14.57
2023-01-28T19:41:16.167Z,16.00
2023-01-28T19:43:43.654Z,15.45
2023-01-28T19:46:14.494Z,18.83
2023-01-28T19:48:41.356Z,18.67
2023-01-28T19:51:09.243Z,20.65
2023-01-28T19:53:37.250Z,15.02
2023-01-28T19:56:10.349Z,18.42
2023-01-28T19:58:39.519Z,17.15
2023-01-28T20:01:11.173Z,17.52
2023-01-28T20:03:38.566Z,18.15
2023-01-28T20:06:08.355Z,28.15
2023-01-28T20:08:35.151Z,18.55
2023-01-28T20:11:07.034Z,26.50
2023-01-28T20:13:35.537Z,23.63
2023-01-28T20:16:12.704Z,21.85
2023-01-28T20:18:39.610Z,17.17
2023-01-28T20:21:06.632Z,22.92
2023-01-28T20:23:34.062Z,19.73
2023-01-28T20:26:03.582Z,21.13
2023-01-28T20:28:30.442Z,25.17
2023-01-28T20:30:57.666Z,23.10
2023-01-28T20:33:24.597Z,17.65
2023-01-28T20:35:51.336Z,22.10
2023-01-28T20:38:18.178Z,22.65
2023-01-28T20:40:46.024Z,19.63
2023-01-28T20:43:12.775Z,28.10
2023-01-28T20:45:39.736Z,28.98
2023-01-28T20:48:06.836Z,27.98
2023-01-28T20:50:34.926Z,21.95
2023-01-28T20:53:02.064Z,23.83
2023-01-28T20:55:29.123Z,22.55
2023-01-28T20:57:56.054Z,32.20
2023-01-28T21:00:23.333Z,25.60
2023-01-28T21:02:50.313Z,32.78
2023-01-28T21:05:17.244Z,26.02
2023-01-28T21:07:44.050Z,31.33
2023-01-28T21:10:11.492Z,35.67
2023-01-28T21:12:38.279Z,25.33
2023-01-28T21:15:05.768Z,37.67
2023-01-28T21:17:32.533Z,34.88
2023-01-28T21:19:59.260Z,30.42
2023-01-28T21:22:26.101Z,28.77
2023-01-28T21:24:52.881Z,36.58
2023-01-28T21:27:19.684Z,27.65
2023-01-28T21:29:46.595Z,31.92
2023-01-28T21:32:13.683Z,31.33
2023-01-28T21:34:40.522Z,37.08
2023-01-28T21:37:07.463Z,40.50
2023-01-28T21:39:34.804Z,39.90
2023-01-28T21:42:01.605Z,42.17
2023-01-28T21:44:28.385Z,40.20
2023-01-28T21:46:55.222Z,36.72
2023-01-28T21:49:22.064Z,40.25
2023-01-28T21:51:48.831Z,37.00
2023-01-28T21:54:19.795Z,42.00
2023-01-28T21:56:49.335Z,38.08
2023-01-28T21:59:29.935Z,48.38
2023-01-28T22:02:10.660Z,47.30
2023-01-28T22:04:40.214Z,47.50
2023-01-28T22:07:10.299Z,50.10
2023-01-28T22:09:38.007Z,42.97
2023-01-28T22:12:09.011Z,44.33
2023-01-28T22:14:37.609Z,46.78
2023-01-28T22:17:07.466Z,52.47
2023-01-28T22:19:34.580Z,55.88
2023-01-28T22:22:01.399Z,54.17
2023-01-28T22:24:29.038Z,49.40
2023-01-28T22:26:56.437Z,48.13
2023-01-28T22:29:24.482Z,47.97
2023-01-28T22:31:53.301Z,55.15
2023-01-28T22:34:21.221Z,46.10
2023-01-28T22:36:49.389Z,50.72
2023-01-28T22:39:17.211Z,53.20
2023-01-28T22:41:44.859Z,44.50
2023-01-28T22:44:11.696Z,47.97
2023-01-28T22:46:38.792Z,49.58
2023-01-28T22:49:05.754Z,45.50
2023-01-28T22:51:35.482Z,47.42
2023-01-28T22:54:03.345Z,48.67
2023-01-28T22:56:31.177Z,55.75
2023-01-28T22:59:02.933Z,55.22
2023-01-28T23:01:30.433Z,49.97
2023-01-28T23:03:57.508Z,49.10
2023-01-28T23:06:26.556Z,48.17
2023-01-28T23:08:54.566Z,51.50
2023-01-28T23:11:28.135Z,50.85
2023-01-28T23:14:16.220Z,53.80
2023-01-28T23:17:01.875Z,45.75
2023-01-28T23:19:47.245Z,55.03
2023-01-28T23:22:43.837Z,47.10
2023-01-28T23:25:11.156Z,48.58
2023-01-28T23:27:38.174Z,52.35
2023-01-28T23:30:09.914Z,57.33
2023-01-28T23:32:40.112Z,50.50
2023-01-28T23:35:11.494Z,62.38
2023-01-28T23:37:38.674Z,56.53
2023-01-28T23:40:07.154Z,51.85
2023-01-28T23:42:33.959Z,47.78
2023-01-28T23:45:00.726Z,53.00
2023-01-28T23:47:27.520Z,52.30
2023-01-28T23:49:54.534Z,54.58
2023-01-28T23:52:21.434Z,48.15
2023-01-28T23:54:48.208Z,49.38
2023-01-28T23:57:15.562Z,55.15
2023-01-28T23:59:43.057Z,54.50
